sensor_id;sensor_type;location;lat;lon;timestamp;pressure;altitude;pressure_sealevel;temperature;humidity
26087;BME280;13851;43.434;28.338;2022-11-23T00:01:30;99378.59;;;13.05;100.00
26087;BME280;13851;43.434;28.338;2022-11-23T00:04:00;99351.53;;;12.95;100.00
26087;BME280;13851;43.434;28.338;2022-11-23T00:06:27;99391.09;;;13.00;100.00
26087;BME280;13851;43.434;28.338;2022-11-23T00:08:55;99321.91;;;12.77;100.00
26087;BME280;13851;43.434;28.338;2022-11-23T00:11:24;99341.19;;;12.97;100.00
26087;BME280;13851;43.434;28.338;2022-11-23T00:13:50;99362.97;;;13.18;100.00
26087;BME280;13851;43.434;28.338;2022-11-23T00:16:18;99154.91;;;12.00;100.00
26087;BME280;13851;43.434;28.338;2022-11-23T00:18:45;99313.06;;;13.01;100.00
26087;BME280;13851;43.434;28.338;2022-11-23T00:21:14;99325.53;;;13.24;100.00
26087;BME280;13851;43.434;28.338;2022-11-23T00:23:40;99321.28;;;13.15;100.00
26087;BME280;13851;43.434;28.338;2022-11-23T00:26:08;99345.22;;;13.27;100.00
26087;BME280;13851;43.434;28.338;2022-11-23T00:28:34;99334.41;;;13.19;100.00
26087;BME280;13851;43.434;28.338;2022-11-23T00:31:03;99368.88;;;13.15;100.00
26087;BME280;13851;43.434;28.338;2022-11-23T00:33:29;99348.63;;;13.23;100.00
26087;BME280;13851;43.434;28.338;2022-11-23T00:36:01;99338.00;;;13.20;100.00
26087;BME280;13851;43.434;28.338;2022-11-23T00:38:27;99339.28;;;13.24;100.00
26087;BME280;13851;43.434;28.338;2022-11-23T00:41:04;99104.63;;;11.92;100.00
26087;BME280;13851;43.434;28.338;2022-11-23T00:43:30;99339.50;;;13.29;100.00
26087;BME280;13851;43.434;28.338;2022-11-23T00:46:03;99133.38;;;12.03;100.00
26087;BME280;13851;43.434;28.338;2022-11-23T00:48:29;99305.84;;;13.14;100.00
26087;BME280;13851;43.434;28.338;2022-11-23T00:50:59;99318.53;;;13.08;100.00
26087;BME280;13851;43.434;28.338;2022-11-23T00:53:27;99107.38;;;11.92;100.00
26087;BME280;13851;43.434;28.338;2022-11-23T00:55:54;99333.16;;;13.29;100.00
26087;BME280;13851;43.434;28.338;2022-11-23T00:58:20;99320.25;;;13.16;100.00
26087;BME280;13851;43.434;28.338;2022-11-23T01:00:46;99359.19;;;13.33;100.00
26087;BME280;13851;43.434;28.338;2022-11-23T01:03:12;99338.25;;;13.32;100.00
26087;BME280;13851;43.434;28.338;2022-11-23T01:05:38;99342.25;;;13.29;100.00
26087;BME280;13851;43.434;28.338;2022-11-23T01:08:04;99340.38;;;13.36;100.00
26087;BME280;13851;43.434;28.338;2022-11-23T01:10:31;99339.31;;;13.37;100.00
26087;BME280;13851;43.434;28.338;2022-11-23T01:12:57;99374.00;;;13.38;100.00
26087;BME280;13851;43.434;28.338;2022-11-23T01:15:22;99352.22;;;13.23;100.00
26087;BME280;13851;43.434;28.338;2022-11-23T01:17:48;99346.25;;;13.40;100.00
26087;BME280;13851;43.434;28.338;2022-11-23T01:20:15;99350.50;;;13.42;100.00
26087;BME280;13851;43.434;28.338;2022-11-23T01:22:41;99364.47;;;13.41;100.00
26087;BME280;13851;43.434;28.338;2022-11-23T01:25:07;99160.84;;;12.36;100.00
26087;BME280;13851;43.434;28.338;2022-11-23T01:27:33;99303.34;;;13.32;100.00
26087;BME280;13851;43.434;28.338;2022-11-23T01:29:58;99116.25;;;12.21;100.00
26087;BME280;13851;43.434;28.338;2022-11-23T01:32:24;99330.63;;;13.47;100.00
26087;BME280;13851;43.434;28.338;2022-11-23T01:34:49;99320.66;;;13.46;100.00
26087;BME280;13851;43.434;28.338;2022-11-23T01:37:17;99185.75;;;12.68;100.00
26087;BME280;13851;43.434;28.338;2022-11-23T01:39:42;99275.63;;;13.27;100.00
26087;BME280;13851;43.434;28.338;2022-11-23T01:42:08;99332.06;;;13.63;100.00
26087;BME280;13851;43.434;28.338;2022-11-23T01:44:36;99318.50;;;13.68;100.00
26087;BME280;13851;43.434;28.338;2022-11-23T01:47:08;99313.00;;;13.68;100.00
26087;BME280;13851;43.434;28.338;2022-11-23T01:49:42;99308.97;;;13.70;100.00
26087;BME280;13851;43.434;28.338;2022-11-23T01:52:14;99288.44;;;13.60;100.00
26087;BME280;13851;43.434;28.338;2022-11-23T01:54:50;99314.03;;;13.73;100.00
26087;BME280;13851;43.434;28.338;2022-11-23T01:57:33;99345.59;;;13.71;100.00
26087;BME280;13851;43.434;28.338;2022-11-23T02:00:05;98985.94;;;11.77;100.00
26087;BME280;13851;43.434;28.338;2022-11-23T02:02:32;99305.38;;;13.63;100.00
26087;BME280;13851;43.434;28.338;2022-11-23T02:04:59;99285.91;;;13.65;100.00
26087;BME280;13851;43.434;28.338;2022-11-23T02:07:27;99315.50;;;13.76;100.00
26087;BME280;13851;43.434;28.338;2022-11-23T02:09:53;99256.72;;;13.50;100.00
26087;BME280;13851;43.434;28.338;2022-11-23T02:12:19;99313.81;;;13.75;100.00
26087;BME280;13851;43.434;28.338;2022-11-23T02:14:44;99275.34;;;13.62;100.00
26087;BME280;13851;43.434;28.338;2022-11-23T02:17:12;99304.50;;;13.83;100.00
26087;BME280;13851;43.434;28.338;2022-11-23T02:25:37;99296.19;;;13.89;100.00
26087;BME280;13851;43.434;28.338;2022-11-23T02:28:06;99282.44;;;13.89;100.00
26087;BME280;13851;43.434;28.338;2022-11-23T02:30:33;99076.31;;;12.65;100.00
26087;BME280;13851;43.434;28.338;2022-11-23T02:33:03;99283.25;;;13.96;100.00
26087;BME280;13851;43.434;28.338;2022-11-23T02:35:33;99281.13;;;13.98;100.00
26087;BME280;13851;43.434;28.338;2022-11-23T02:38:01;99289.19;;;13.93;100.00
26087;BME280;13851;43.434;28.338;2022-11-23T02:40:31;99099.25;;;12.97;100.00
26087;BME280;13851;43.434;28.338;2022-11-23T02:42:58;99267.78;;;13.95;100.00
26087;BME280;13851;43.434;28.338;2022-11-23T02:45:35;99259.09;;;13.98;100.00
26087;BME280;13851;43.434;28.338;2022-11-23T02:48:01;99230.16;;;13.76;100.00
26087;BME280;13851;43.434;28.338;2022-11-23T02:50:30;99271.16;;;14.04;100.00
26087;BME280;13851;43.434;28.338;2022-11-23T02:52:58;99259.06;;;14.05;100.00
26087;BME280;13851;43.434;28.338;2022-11-23T02:55:24;99248.97;;;13.92;100.00
26087;BME280;13851;43.434;28.338;2022-11-23T02:57:49;99253.22;;;13.88;100.00
26087;BME280;13851;43.434;28.338;2022-11-23T03:00:17;99229.50;;;13.87;100.00
26087;BME280;13851;43.434;28.338;2022-11-23T03:02:42;99209.81;;;13.84;100.00
26087;BME280;13851;43.434;28.338;2022-11-23T03:05:10;99027.63;;;12.79;100.00
26087;BME280;13851;43.434;28.338;2022-11-23T03:07:36;99238.38;;;13.89;100.00
26087;BME280;13851;43.434;28.338;2022-11-23T03:10:02;99245.34;;;13.98;100.00
26087;BME280;13851;43.434;28.338;2022-11-23T03:12:28;99285.34;;;14.08;100.00
26087;BME280;13851;43.434;28.338;2022-11-23T03:14:55;99238.81;;;13.86;100.00
26087;BME280;13851;43.434;28.338;2022-11-23T03:17:23;99232.38;;;14.05;100.00
26087;BME280;13851;43.434;28.338;2022-11-23T03:19:49;99207.03;;;13.90;100.00
26087;BME280;13851;43.434;28.338;2022-11-23T03:22:17;99197.25;;;13.94;100.00
26087;BME280;13851;43.434;28.338;2022-11-23T03:24:45;99205.34;;;13.89;100.00
26087;BME280;13851;43.434;28.338;2022-11-23T03:27:10;99225.34;;;14.10;100.00
26087;BME280;13851;43.434;28.338;2022-11-23T03:29:38;99201.50;;;13.90;100.00
26087;BME280;13851;43.434;28.338;2022-11-23T03:32:04;99016.25;;;12.75;100.00
26087;BME280;13851;43.434;28.338;2022-11-23T03:34:30;99189.25;;;13.86;100.00
26087;BME280;13851;43.434;28.338;2022-11-23T03:36:55;99245.09;;;14.00;100.00
26087;BME280;13851;43.434;28.338;2022-11-23T03:39:24;99221.81;;;13.96;100.00
26087;BME280;13851;43.434;28.338;2022-11-23T03:41:51;99216.25;;;14.09;100.00
26087;BME280;13851;43.434;28.338;2022-11-23T03:44:17;99014.25;;;12.89;100.00
26087;BME280;13851;43.434;28.338;2022-11-23T03:46:45;99210.78;;;14.02;100.00
26087;BME280;13851;43.434;28.338;2022-11-23T03:49:11;99212.13;;;13.87;100.00
26087;BME280;13851;43.434;28.338;2022-11-23T03:51:37;99216.69;;;14.06;100.00
26087;BME280;13851;43.434;28.338;2022-11-23T03:54:02;99204.22;;;14.03;100.00
26087;BME280;13851;43.434;28.338;2022-11-23T03:56:28;99209.91;;;14.09;100.00
26087;BME280;13851;43.434;28.338;2022-11-23T03:58:53;99208.59;;;14.11;100.00
26087;BME280;13851;43.434;28.338;2022-11-23T04:01:21;99195.50;;;14.07;100.00
26087;BME280;13851;43.434;28.338;2022-11-23T04:03:46;99017.38;;;13.06;100.00
26087;BME280;13851;43.434;28.338;2022-11-23T04:06:15;99020.13;;;12.99;100.00
26087;BME280;13851;43.434;28.338;2022-11-23T04:08:40;99209.63;;;14.17;100.00
26087;BME280;13851;43.434;28.338;2022-11-23T04:11:08;99195.50;;;14.07;100.00
26087;BME280;13851;43.434;28.338;2022-11-23T04:13:36;99003.06;;;12.90;100.00
26087;BME280;13851;43.434;28.338;2022-11-23T04:16:01;99141.03;;;13.77;100.00
26087;BME280;13851;43.434;28.338;2022-11-23T04:18:27;99190.03;;;14.00;100.00
26087;BME280;13851;43.434;28.338;2022-11-23T04:20:53;99133.34;;;13.86;100.00
26087;BME280;13851;43.434;28.338;2022-11-23T04:23:18;99162.44;;;14.07;100.00
26087;BME280;13851;43.434;28.338;2022-11-23T04:25:44;99123.63;;;13.83;100.00
26087;BME280;13851;43.434;28.338;2022-11-23T04:28:10;99150.47;;;13.94;100.00
26087;BME280;13851;43.434;28.338;2022-11-23T04:30:41;99125.50;;;13.89;100.00
26087;BME280;13851;43.434;28.338;2022-11-23T04:33:06;99109.34;;;13.99;100.00
26087;BME280;13851;43.434;28.338;2022-11-23T04:35:32;99136.16;;;14.11;100.00
26087;BME280;13851;43.434;28.338;2022-11-23T04:37:58;99113.84;;;14.19;100.00
26087;BME280;13851;43.434;28.338;2022-11-23T04:40:26;99080.53;;;13.95;100.00
26087;BME280;13851;43.434;28.338;2022-11-23T04:42:53;99099.75;;;14.09;100.00
26087;BME280;13851;43.434;28.338;2022-11-23T04:45:18;99102.88;;;14.12;100.00
26087;BME280;13851;43.434;28.338;2022-11-23T04:47:44;98927.25;;;13.08;100.00
26087;BME280;13851;43.434;28.338;2022-11-23T04:50:09;99081.13;;;14.04;100.00
26087;BME280;13851;43.434;28.338;2022-11-23T04:52:35;99136.16;;;14.11;100.00
26087;BME280;13851;43.434;28.338;2022-11-23T04:55:00;99077.44;;;13.85;100.00
26087;BME280;13851;43.434;28.338;2022-11-23T04:57:26;99086.63;;;14.04;100.00
26087;BME280;13851;43.434;28.338;2022-11-23T04:59:54;99081.72;;;14.06;100.00
26087;BME280;13851;43.434;28.338;2022-11-23T05:02:20;99074.44;;;13.93;100.00
26087;BME280;13851;43.434;28.338;2022-11-23T05:04:48;99004.34;;;13.64;100.00
26087;BME280;13851;43.434;28.338;2022-11-23T05:07:14;99046.91;;;13.93;100.00
26087;BME280;13851;43.434;28.338;2022-11-23T05:09:41;99071.75;;;13.80;100.00
26087;BME280;13851;43.434;28.338;2022-11-23T05:12:08;99076.47;;;14.04;100.00
26087;BME280;13851;43.434;28.338;2022-11-23T05:14:34;99092.56;;;14.08;100.00
26087;BME280;13851;43.434;28.338;2022-11-23T05:16:59;98944.09;;;13.18;100.00
26087;BME280;13851;43.434;28.338;2022-11-23T05:19:24;99063.84;;;13.90;100.00
26087;BME280;13851;43.434;28.338;2022-11-23T05:21:50;99077.19;;;13.93;100.00
26087;BME280;13851;43.434;28.338;2022-11-23T05:24:15;99071.19;;;14.03;100.00
26087;BME280;13851;43.434;28.338;2022-11-23T05:26:41;99057.44;;;13.96;100.00
26087;BME280;13851;43.434;28.338;2022-11-23T05:29:06;99079.03;;;13.99;100.00
26087;BME280;13851;43.434;28.338;2022-11-23T05:31:32;99080.41;;;14.15;100.00
26087;BME280;13851;43.434;28.338;2022-11-23T05:33:57;99038.66;;;13.87;100.00
26087;BME280;13851;43.434;28.338;2022-11-23T05:36:23;99099.19;;;14.25;100.00
26087;BME280;13851;43.434;28.338;2022-11-23T05:38:48;99042.91;;;14.14;100.00
26087;BME280;13851;43.434;28.338;2022-11-23T05:41:15;98815.28;;;12.65;100.00
26087;BME280;13851;43.434;28.338;2022-11-23T05:43:41;99076.63;;;14.35;100.00
26087;BME280;13851;43.434;28.338;2022-11-23T05:46:06;98883.69;;;13.11;100.00
26087;BME280;13851;43.434;28.338;2022-11-23T05:48:32;99044.91;;;14.25;100.00
26087;BME280;13851;43.434;28.338;2022-11-23T05:50:57;99089.66;;;14.46;100.00
26087;BME280;13851;43.434;28.338;2022-11-23T05:53:23;99083.31;;;14.45;100.00
26087;BME280;13851;43.434;28.338;2022-11-23T05:55:48;99061.69;;;14.49;100.00
26087;BME280;13851;43.434;28.338;2022-11-23T05:58:14;99039.34;;;14.32;100.00
26087;BME280;13851;43.434;28.338;2022-11-23T06:00:39;99071.84;;;14.48;100.00
26087;BME280;13851;43.434;28.338;2022-11-23T06:03:04;98918.25;;;13.57;100.00
26087;BME280;13851;43.434;28.338;2022-11-23T06:05:30;99057.94;;;14.37;100.00
26087;BME280;13851;43.434;28.338;2022-11-23T06:07:56;98993.94;;;13.91;100.00
26087;BME280;13851;43.434;28.338;2022-11-23T06:10:22;99048.75;;;14.24;100.00
26087;BME280;13851;43.434;28.338;2022-11-23T06:12:47;99012.06;;;14.05;100.00
26087;BME280;13851;43.434;28.338;2022-11-23T06:15:14;98826.34;;;12.83;100.00
26087;BME280;13851;43.434;28.338;2022-11-23T06:17:40;98992.50;;;13.89;100.00
26087;BME280;13851;43.434;28.338;2022-11-23T06:20:07;98999.94;;;13.88;100.00
26087;BME280;13851;43.434;28.338;2022-11-23T06:22:33;98999.03;;;13.94;100.00
26087;BME280;13851;43.434;28.338;2022-11-23T06:25:00;99028.41;;;14.25;100.00
26087;BME280;13851;43.434;28.338;2022-11-23T06:27:26;99051.50;;;14.24;100.00
26087;BME280;13851;43.434;28.338;2022-11-23T06:29:51;99031.81;;;14.21;100.00
26087;BME280;13851;43.434;28.338;2022-11-23T06:32:17;99026.91;;;14.04;100.00
26087;BME280;13851;43.434;28.338;2022-11-23T06:34:42;98890.34;;;13.29;100.00
26087;BME280;13851;43.434;28.338;2022-11-23T06:37:08;98969.91;;;13.80;100.00
26087;BME280;13851;43.434;28.338;2022-11-23T06:39:34;99047.41;;;14.09;100.00
26087;BME280;13851;43.434;28.338;2022-11-23T06:41:59;99054.03;;;14.01;100.00
26087;BME280;13851;43.434;28.338;2022-11-23T06:44:25;99017.47;;;13.94;100.00
26087;BME280;13851;43.434;28.338;2022-11-23T06:46:50;98897.13;;;13.19;100.00
26087;BME280;13851;43.434;28.338;2022-11-23T06:49:17;99016.66;;;14.12;100.00
26087;BME280;13851;43.434;28.338;2022-11-23T06:51:44;99066.88;;;14.14;100.00
26087;BME280;13851;43.434;28.338;2022-11-23T06:54:10;99024.88;;;14.18;100.00
26087;BME280;13851;43.434;28.338;2022-11-23T06:56:38;99042.69;;;14.16;100.00
26087;BME280;13851;43.434;28.338;2022-11-23T06:59:04;99037.06;;;14.04;100.00
26087;BME280;13851;43.434;28.338;2022-11-23T07:01:30;98812.78;;;12.57;100.00
26087;BME280;13851;43.434;28.338;2022-11-23T07:03:57;99048.53;;;14.01;100.00
26087;BME280;13851;43.434;28.338;2022-11-23T07:06:22;99000.03;;;13.75;100.00
26087;BME280;13851;43.434;28.338;2022-11-23T07:08:48;99051.16;;;13.89;100.00
26087;BME280;13851;43.434;28.338;2022-11-23T07:11:13;98841.88;;;12.71;100.00
26087;BME280;13851;43.434;28.338;2022-11-23T07:13:42;99080.91;;;14.05;100.00
26087;BME280;13851;43.434;28.338;2022-11-23T07:16:10;99013.91;;;13.87;100.00
26087;BME280;13851;43.434;28.338;2022-11-23T07:18:35;98971.72;;;13.68;100.00
26087;BME280;13851;43.434;28.338;2022-11-23T07:21:01;99035.03;;;13.68;100.00
26087;BME280;13851;43.434;28.338;2022-11-23T07:23:26;99018.13;;;13.89;100.00
26087;BME280;13851;43.434;28.338;2022-11-23T07:25:52;99034.25;;;13.86;100.00
26087;BME280;13851;43.434;28.338;2022-11-23T07:28:18;99033.63;;;14.09;100.00
26087;BME280;13851;43.434;28.338;2022-11-23T07:30:43;99021.31;;;14.11;100.00
26087;BME280;13851;43.434;28.338;2022-11-23T07:33:10;99022.56;;;14.15;100.00
26087;BME280;13851;43.434;28.338;2022-11-23T07:35:38;98930.47;;;13.61;100.00
26087;BME280;13851;43.434;28.338;2022-11-23T07:38:07;99017.28;;;14.14;100.00
26087;BME280;13851;43.434;28.338;2022-11-23T07:40:35;98809.84;;;12.83;100.00
26087;BME280;13851;43.434;28.338;2022-11-23T07:43:01;99030.97;;;14.20;100.00
26087;BME280;13851;43.434;28.338;2022-11-23T07:45:28;99015.69;;;14.24;100.00
26087;BME280;13851;43.434;28.338;2022-11-23T07:48:02;99017.97;;;14.27;100.00
26087;BME280;13851;43.434;28.338;2022-11-23T07:50:28;99040.59;;;14.36;100.00
26087;BME280;13851;43.434;28.338;2022-11-23T07:52:54;98833.16;;;13.06;100.00
26087;BME280;13851;43.434;28.338;2022-11-23T07:55:20;99025.81;;;14.30;100.00
26087;BME280;13851;43.434;28.338;2022-11-23T07:57:46;99036.38;;;14.34;100.00
26087;BME280;13851;43.434;28.338;2022-11-23T08:00:12;99034.31;;;14.29;100.00
26087;BME280;13851;43.434;28.338;2022-11-23T08:02:38;99028.41;;;14.25;100.00
26087;BME280;13851;43.434;28.338;2022-11-23T08:05:05;99026.91;;;14.04;100.00
26087;BME280;13851;43.434;28.338;2022-11-23T08:07:31;99030.91;;;14.27;100.00
26087;BME280;13851;43.434;28.338;2022-11-23T08:09:56;99039.97;;;14.34;100.00
26087;BME280;13851;43.434;28.338;2022-11-23T08:12:22;98996.16;;;14.08;100.00
26087;BME280;13851;43.434;28.338;2022-11-23T08:14:49;99030.56;;;13.98;100.00
26087;BME280;13851;43.434;28.338;2022-11-23T08:17:15;99021.44;;;13.98;100.00
26087;BME280;13851;43.434;28.338;2022-11-23T08:19:42;99021.38;;;14.04;100.00
26087;BME280;13851;43.434;28.338;2022-11-23T08:22:10;99050.59;;;14.05;100.00
26087;BME280;13851;43.434;28.338;2022-11-23T08:24:36;99014.81;;;14.05;100.00
26087;BME280;13851;43.434;28.338;2022-11-23T08:27:01;99039.75;;;13.86;100.00
26087;BME280;13851;43.434;28.338;2022-11-23T08:29:27;99027.50;;;14.07;100.00
26087;BME280;13851;43.434;28.338;2022-11-23T08:31:52;98977.50;;;13.85;100.00
26087;BME280;13851;43.434;28.338;2022-11-23T08:34:17;99012.28;;;14.04;100.00
26087;BME280;13851;43.434;28.338;2022-11-23T08:36:44;99020.94;;;14.08;100.00
26087;BME280;13851;43.434;28.338;2022-11-23T08:39:11;99004.13;;;13.91;100.00
26087;BME280;13851;43.434;28.338;2022-11-23T08:41:41;98936.28;;;13.53;100.00
26087;BME280;13851;43.434;28.338;2022-11-23T08:44:07;98997.72;;;13.97;100.00
26087;BME280;13851;43.434;28.338;2022-11-23T08:46:35;98806.66;;;12.86;100.00
26087;BME280;13851;43.434;28.338;2022-11-23T08:49:02;99012.38;;;14.16;100.00
26087;BME280;13851;43.434;28.338;2022-11-23T08:51:31;98976.00;;;14.07;100.00
26087;BME280;13851;43.434;28.338;2022-11-23T08:53:56;98952.78;;;14.03;100.00
26087;BME280;13851;43.434;28.338;2022-11-23T08:56:25;99004.31;;;14.39;100.00
26087;BME280;13851;43.434;28.338;2022-11-23T08:58:50;98894.81;;;13.73;100.00
26087;BME280;13851;43.434;28.338;2022-11-23T09:01:17;99000.66;;;14.45;100.00
26087;BME280;13851;43.434;28.338;2022-11-23T09:03:43;99004.09;;;14.41;100.00
26087;BME280;13851;43.434;28.338;2022-11-23T09:06:09;98984.72;;;14.29;100.00
26087;BME280;13851;43.434;28.338;2022-11-23T09:08:35;98959.28;;;14.27;100.00
26087;BME280;13851;43.434;28.338;2022-11-23T09:11:01;98947.06;;;14.23;100.00
26087;BME280;13851;43.434;28.338;2022-11-23T09:13:30;98967.91;;;14.55;100.00
26087;BME280;13851;43.434;28.338;2022-11-23T09:16:00;98982.44;;;14.63;100.00
26087;BME280;13851;43.434;28.338;2022-11-23T09:18:33;98976.50;;;14.66;100.00
26087;BME280;13851;43.434;28.338;2022-11-23T09:21:02;98971.97;;;14.71;100.00
26087;BME280;13851;43.434;28.338;2022-11-23T09:23:28;98960.19;;;14.64;100.00
26087;BME280;13851;43.434;28.338;2022-11-23T09:25:59;98973.28;;;14.50;100.00
26087;BME280;13851;43.434;28.338;2022-11-23T09:28:25;98910.16;;;14.42;100.00
26087;BME280;13851;43.434;28.338;2022-11-23T09:30:53;98954.88;;;14.81;100.00
26087;BME280;13851;43.434;28.338;2022-11-23T09:33:20;98959.16;;;14.77;100.00
26087;BME280;13851;43.434;28.338;2022-11-23T09:35:45;98954.59;;;14.71;100.00
26087;BME280;13851;43.434;28.338;2022-11-23T09:38:11;98900.59;;;14.45;100.00
26087;BME280;13851;43.434;28.338;2022-11-23T09:40:40;98968.66;;;14.63;100.00
26087;BME280;13851;43.434;28.338;2022-11-23T09:45:52;98957.16;;;14.29;100.00
26087;BME280;13851;43.434;28.338;2022-11-23T09:48:31;98954.44;;;14.47;100.00
26087;BME280;13851;43.434;28.338;2022-11-23T09:51:17;98983.47;;;14.43;100.00
26087;BME280;13851;43.434;28.338;2022-11-23T09:56:18;98940.47;;;14.42;100.00
26087;BME280;13851;43.434;28.338;2022-11-23T09:58:48;98947.84;;;14.48;100.00
26087;BME280;13851;43.434;28.338;2022-11-23T10:01:14;98930.09;;;14.44;100.00
26087;BME280;13851;43.434;28.338;2022-11-23T10:03:44;98923.94;;;14.42;100.00
26087;BME280;13851;43.434;28.338;2022-11-23T10:06:32;98888.97;;;14.24;100.00
26087;BME280;13851;43.434;28.338;2022-11-23T10:09:37;98932.78;;;14.51;100.00
26087;BME280;13851;43.434;28.338;2022-11-23T10:12:20;98927.03;;;14.52;100.00
26087;BME280;13851;43.434;28.338;2022-11-23T10:22:51;98915.78;;;14.54;100.00
26087;BME280;13851;43.434;28.338;2022-11-23T10:25:22;98924.28;;;14.52;100.00
26087;BME280;13851;43.434;28.338;2022-11-23T10:27:56;98913.09;;;14.47;100.00
26087;BME280;13851;43.434;28.338;2022-11-23T10:30:24;98933.28;;;14.41;100.00
26087;BME280;13851;43.434;28.338;2022-11-23T10:33:08;98939.03;;;14.40;100.00
26087;BME280;13851;43.434;28.338;2022-11-23T10:35:42;98555.91;;;12.29;100.00
26087;BME280;13851;43.434;28.338;2022-11-23T10:38:09;98905.28;;;14.44;100.00
26087;BME280;13851;43.434;28.338;2022-11-23T10:40:38;98896.03;;;14.20;100.00
26087;BME280;13851;43.434;28.338;2022-11-23T10:43:16;98888.44;;;14.34;100.00
26087;BME280;13851;43.434;28.338;2022-11-23T10:45:42;98895.63;;;14.35;100.00
26087;BME280;13851;43.434;28.338;2022-11-23T10:48:08;98916.84;;;14.35;100.00
26087;BME280;13851;43.434;28.338;2022-11-23T10:50:36;98910.72;;;14.51;100.00
26087;BME280;13851;43.434;28.338;2022-11-23T10:55:47;98904.06;;;14.40;100.00
26087;BME280;13851;43.434;28.338;2022-11-23T10:58:33;98695.56;;;13.19;100.00
26087;BME280;13851;43.434;28.338;2022-11-23T11:01:26;98905.03;;;14.46;100.00
26087;BME280;13851;43.434;28.338;2022-11-23T11:04:00;98874.88;;;14.32;100.00
26087;BME280;13851;43.434;28.338;2022-11-23T11:06:31;98906.97;;;14.45;100.00
26087;BME280;13851;43.434;28.338;2022-11-23T11:09:00;98896.78;;;14.46;100.00
26087;BME280;13851;43.434;28.338;2022-11-23T11:11:31;98879.09;;;14.35;100.00
26087;BME280;13851;43.434;28.338;2022-11-23T11:14:05;98886.59;;;14.46;100.00
26087;BME280;13851;43.434;28.338;2022-11-23T11:16:54;98912.03;;;14.48;100.00
26087;BME280;13851;43.434;28.338;2022-11-23T11:19:28;98774.03;;;13.65;100.00
26087;BME280;13851;43.434;28.338;2022-11-23T11:21:55;98894.72;;;14.41;100.00
26087;BME280;13851;43.434;28.338;2022-11-23T11:27:25;98889.88;;;14.37;100.00
26087;BME280;13851;43.434;28.338;2022-11-23T11:29:54;98801.16;;;13.79;100.00
26087;BME280;13851;43.434;28.338;2022-11-23T11:37:51;98893.19;;;14.27;100.00
26087;BME280;13851;43.434;28.338;2022-11-23T11:40:46;98904.72;;;14.17;100.00
26087;BME280;13851;43.434;28.338;2022-11-23T11:43:26;98916.22;;;14.32;100.00
26087;BME280;13851;43.434;28.338;2022-11-23T11:45:59;98899.75;;;14.26;100.00
26087;BME280;13851;43.434;28.338;2022-11-23T11:48:38;98761.22;;;13.34;100.00
26087;BME280;13851;43.434;28.338;2022-11-23T11:53:35;98682.09;;;12.92;100.00
26087;BME280;13851;43.434;28.338;2022-11-23T11:56:10;98867.84;;;14.00;100.00
26087;BME280;13851;43.434;28.338;2022-11-23T12:01:39;98900.59;;;14.26;100.00
26087;BME280;13851;43.434;28.338;2022-11-23T12:04:14;98915.84;;;14.29;100.00
26087;BME280;13851;43.434;28.338;2022-11-23T12:06:47;98889.50;;;14.15;100.00
26087;BME280;13851;43.434;28.338;2022-11-23T12:09:18;98859.06;;;13.91;100.00
26087;BME280;13851;43.434;28.338;2022-11-23T12:11:49;98836.34;;;13.77;100.00
26087;BME280;13851;43.434;28.338;2022-11-23T12:14:17;98915.44;;;14.07;100.00
26087;BME280;13851;43.434;28.338;2022-11-23T12:22:39;98722.72;;;12.90;100.00
26087;BME280;13851;43.434;28.338;2022-11-23T12:25:33;98924.94;;;14.11;100.00
26087;BME280;13851;43.434;28.338;2022-11-23T12:28:29;98945.28;;;14.10;100.00
26087;BME280;13851;43.434;28.338;2022-11-23T12:31:14;98899.47;;;13.97;100.00
26087;BME280;13851;43.434;28.338;2022-11-23T12:36:39;98897.31;;;13.99;100.00
26087;BME280;13851;43.434;28.338;2022-11-23T12:49:53;98691.41;;;12.91;100.00
26087;BME280;13851;43.434;28.338;2022-11-23T12:52:30;98895.09;;;14.08;100.00
26087;BME280;13851;43.434;28.338;2022-11-23T12:57:38;98784.44;;;13.63;100.00
26087;BME280;13851;43.434;28.338;2022-11-23T13:00:20;98938.94;;;14.46;100.00
26087;BME280;13851;43.434;28.338;2022-11-23T13:16:09;98921.03;;;14.37;100.00
26087;BME280;13851;43.434;28.338;2022-11-23T13:23:55;98903.88;;;14.17;100.00
26087;BME280;13851;43.434;28.338;2022-11-23T13:26:24;98921.81;;;14.26;100.00
26087;BME280;13851;43.434;28.338;2022-11-23T13:28:54;98887.72;;;14.02;100.00
26087;BME280;13851;43.434;28.338;2022-11-23T13:31:28;98911.69;;;14.01;100.00
26087;BME280;13851;43.434;28.338;2022-11-23T13:34:00;98929.59;;;14.11;100.00
26087;BME280;13851;43.434;28.338;2022-11-23T13:38:58;98895.47;;;14.12;100.00
26087;BME280;13851;43.434;28.338;2022-11-23T13:44:28;98891.81;;;14.18;100.00
26087;BME280;13851;43.434;28.338;2022-11-23T13:49:49;98902.13;;;14.22;100.00
26087;BME280;13851;43.434;28.338;2022-11-23T13:55:01;98687.81;;;12.91;100.00
26087;BME280;13851;43.434;28.338;2022-11-23T13:57:28;98905.28;;;14.26;100.00
26087;BME280;13851;43.434;28.338;2022-11-23T14:06:01;98907.88;;;14.21;100.00
26087;BME280;13851;43.434;28.338;2022-11-23T14:08:28;98911.47;;;14.21;100.00
26087;BME280;13851;43.434;28.338;2022-11-23T14:10:56;98882.03;;;14.03;100.00
26087;BME280;13851;43.434;28.338;2022-11-23T14:13:29;98907.59;;;14.29;100.00
26087;BME280;13851;43.434;28.338;2022-11-23T14:16:00;98951.19;;;14.32;100.00
26087;BME280;13851;43.434;28.338;2022-11-23T14:21:35;98920.97;;;14.44;100.00
26087;BME280;13851;43.434;28.338;2022-11-23T14:26:54;98897.94;;;14.20;100.00